sensor_id;sensor_type;location;lat;lon;timestamp;noise_LAeq;noise_LA_min;noise_LA_max;noise_LA01;noise_LA95
57092;Laerm;42968;52.094;4.328;2023-04-15T00:01:20;50.53;38.52;65.73;;
57092;Laerm;42968;52.094;4.328;2023-04-15T00:03:46;59.43;38.52;73.17;;
57092;Laerm;42968;52.094;4.328;2023-04-15T00:06:12;51.97;38.67;67.50;;
57092;Laerm;42968;52.094;4.328;2023-04-15T00:08:37;42.87;38.37;57.62;;
57092;Laerm;42968;52.094;4.328;2023-04-15T00:11:03;54.13;39.21;69.01;;
57092;Laerm;42968;52.094;4.328;2023-04-15T00:13:30;58.42;40.43;73.32;;
57092;Laerm;42968;52.094;4.328;2023-04-15T00:15:55;55.74;38.87;72.77;;
57092;Laerm;42968;52.094;4.328;2023-04-15T00:18:20;59.23;38.37;72.49;;
57092;Laerm;42968;52.094;4.328;2023-04-15T00:20:46;54.72;37.52;68.63;;
57092;Laerm;42968;52.094;4.328;2023-04-15T00:23:11;56.96;38.67;73.63;;
57092;Laerm;42968;52.094;4.328;2023-04-15T00:25:37;54.10;38.05;78.05;;
57092;Laerm;42968;52.094;4.328;2023-04-15T00:28:02;55.28;38.37;70.69;;
57092;Laerm;42968;52.094;4.328;2023-04-15T00:30:28;58.28;37.52;75.81;;
57092;Laerm;42968;52.094;4.328;2023-04-15T00:32:53;54.29;36.91;70.63;;
57092;Laerm;42968;52.094;4.328;2023-04-15T00:35:19;55.51;37.52;69.81;;
57092;Laerm;42968;52.094;4.328;2023-04-15T00:37:44;58.24;38.95;74.31;;
57092;Laerm;42968;52.094;4.328;2023-04-15T00:40:12;58.55;39.21;72.65;;
57092;Laerm;42968;52.094;4.328;2023-04-15T00:42:41;55.21;37.70;72.66;;
57092;Laerm;42968;52.094;4.328;2023-04-15T00:45:06;55.80;36.91;71.41;;
57092;Laerm;42968;52.094;4.328;2023-04-15T00:47:32;57.55;39.58;71.31;;
57092;Laerm;42968;52.094;4.328;2023-04-15T00:49:59;51.73;37.32;68.10;;
57092;Laerm;42968;52.094;4.328;2023-04-15T00:52:24;53.80;37.88;71.18;;
57092;Laerm;42968;52.094;4.328;2023-04-15T00:54:50;51.81;38.52;68.14;;
57092;Laerm;42968;52.094;4.328;2023-04-15T00:57:16;56.47;38.21;72.90;;
57092;Laerm;42968;52.094;4.328;2023-04-15T00:59:41;57.21;38.52;72.87;;
57092;Laerm;42968;52.094;4.328;2023-04-15T01:02:06;51.28;38.52;69.20;;
57092;Laerm;42968;52.094;4.328;2023-04-15T01:04:32;41.20;38.02;44.65;;
57092;Laerm;42968;52.094;4.328;2023-04-15T01:06:57;59.56;38.21;82.04;;
57092;Laerm;42968;52.094;4.328;2023-04-15T01:09:22;58.08;38.37;74.47;;
57092;Laerm;42968;52.094;4.328;2023-04-15T01:11:48;51.52;37.12;67.43;;
57092;Laerm;42968;52.094;4.328;2023-04-15T01:14:13;50.84;38.81;67.16;;
57092;Laerm;42968;52.094;4.328;2023-04-15T01:16:39;55.27;39.08;68.55;;
57092;Laerm;42968;52.094;4.328;2023-04-15T01:19:05;52.77;37.70;68.68;;
57092;Laerm;42968;52.094;4.328;2023-04-15T01:21:35;54.89;37.88;69.47;;
57092;Laerm;42968;52.094;4.328;2023-04-15T01:24:00;56.15;38.52;73.19;;
57092;Laerm;42968;52.094;4.328;2023-04-15T01:26:26;53.94;38.52;67.79;;
57092;Laerm;42968;52.094;4.328;2023-04-15T01:28:52;55.77;38.21;70.84;;
57092;Laerm;42968;52.094;4.328;2023-04-15T01:31:17;55.54;38.21;68.12;;
57092;Laerm;42968;52.094;4.328;2023-04-15T01:33:42;55.14;38.81;74.07;;
57092;Laerm;42968;52.094;4.328;2023-04-15T01:36:08;57.28;39.46;70.92;;
57092;Laerm;42968;52.094;4.328;2023-04-15T01:38:35;50.24;37.70;65.61;;
57092;Laerm;42968;52.094;4.328;2023-04-15T01:41:00;56.94;39.81;68.92;;
57092;Laerm;42968;52.094;4.328;2023-04-15T01:43:26;53.47;39.58;71.89;;
57092;Laerm;42968;52.094;4.328;2023-04-15T01:45:52;52.62;38.21;68.69;;
57092;Laerm;42968;52.094;4.328;2023-04-15T01:48:17;55.03;38.67;72.96;;
57092;Laerm;42968;52.094;4.328;2023-04-15T01:50:43;56.39;37.32;72.00;;
57092;Laerm;42968;52.094;4.328;2023-04-15T01:53:08;52.38;37.32;68.21;;
57092;Laerm;42968;52.094;4.328;2023-04-15T01:55:34;60.25;39.70;72.26;;
57092;Laerm;42968;52.094;4.328;2023-04-15T01:57:59;50.73;38.67;66.26;;
57092;Laerm;42968;52.094;4.328;2023-04-15T02:00:25;55.76;38.21;67.85;;
57092;Laerm;42968;52.094;4.328;2023-04-15T02:02:50;52.42;37.70;69.20;;
57092;Laerm;42968;52.094;4.328;2023-04-15T02:05:15;54.32;38.05;71.64;;
57092;Laerm;42968;52.094;4.328;2023-04-15T02:07:41;57.94;39.34;73.61;;
57092;Laerm;42968;52.094;4.328;2023-04-15T02:10:07;50.90;37.52;66.95;;
57092;Laerm;42968;52.094;4.328;2023-04-15T02:12:33;56.05;38.81;71.59;;
57092;Laerm;42968;52.094;4.328;2023-04-15T02:14:58;51.69;38.21;67.56;;
57092;Laerm;42968;52.094;4.328;2023-04-15T02:17:23;46.21;37.88;59.27;;
57092;Laerm;42968;52.094;4.328;2023-04-15T02:19:49;54.90;37.32;70.36;;
57092;Laerm;42968;52.094;4.328;2023-04-15T02:22:14;50.70;37.32;67.83;;
57092;Laerm;42968;52.094;4.328;2023-04-15T02:24:42;55.48;37.70;71.42;;
57092;Laerm;42968;52.094;4.328;2023-04-15T02:27:08;40.66;37.32;45.48;;
57092;Laerm;42968;52.094;4.328;2023-04-15T02:29:33;40.97;37.52;47.18;;
57092;Laerm;42968;52.094;4.328;2023-04-15T02:31:58;58.29;37.88;70.04;;
57092;Laerm;42968;52.094;4.328;2023-04-15T02:34:23;53.61;36.91;69.29;;
57092;Laerm;42968;52.094;4.328;2023-04-15T02:36:51;55.31;37.88;74.51;;
57092;Laerm;42968;52.094;4.328;2023-04-15T02:39:20;44.45;38.37;56.11;;
57092;Laerm;42968;52.094;4.328;2023-04-15T02:41:45;53.15;38.52;69.26;;
57092;Laerm;42968;52.094;4.328;2023-04-15T02:44:15;57.36;37.52;73.96;;
57092;Laerm;42968;52.094;4.328;2023-04-15T02:46:42;52.65;35.94;70.14;;
57092;Laerm;42968;52.094;4.328;2023-04-15T02:49:08;50.74;37.12;67.62;;
57092;Laerm;42968;52.094;4.328;2023-04-15T02:51:33;83.31;36.91;105.75;;
57092;Laerm;42968;52.094;4.328;2023-04-15T02:53:58;41.12;37.12;49.57;;
57092;Laerm;42968;52.094;4.328;2023-04-15T02:56:24;49.04;37.32;66.57;;
57092;Laerm;42968;52.094;4.328;2023-04-15T02:58:49;51.75;37.32;68.34;;
57092;Laerm;42968;52.094;4.328;2023-04-15T03:01:15;51.84;37.12;69.53;;
57092;Laerm;42968;52.094;4.328;2023-04-15T03:03:40;53.74;38.21;72.85;;
57092;Laerm;42968;52.094;4.328;2023-04-15T03:06:06;53.93;38.52;71.87;;
57092;Laerm;42968;52.094;4.328;2023-04-15T03:08:32;40.88;37.88;53.13;;
57092;Laerm;42968;52.094;4.328;2023-04-15T03:10:58;56.40;37.88;72.71;;
57092;Laerm;42968;52.094;4.328;2023-04-15T03:13:24;51.86;38.67;72.63;;
57092;Laerm;42968;52.094;4.328;2023-04-15T03:15:50;56.56;37.70;73.73;;
57092;Laerm;42968;52.094;4.328;2023-04-15T03:18:15;59.10;39.92;72.97;;
57092;Laerm;42968;52.094;4.328;2023-04-15T03:20:41;59.00;38.37;74.46;;
57092;Laerm;42968;52.094;4.328;2023-04-15T03:23:06;61.83;38.21;75.82;;
57092;Laerm;42968;52.094;4.328;2023-04-15T03:25:31;60.65;38.21;75.60;;
57092;Laerm;42968;52.094;4.328;2023-04-15T03:27:57;62.14;41.68;74.14;;
57092;Laerm;42968;52.094;4.328;2023-04-15T03:30:22;57.15;38.52;76.48;;
57092;Laerm;42968;52.094;4.328;2023-04-15T03:32:47;59.74;37.88;73.09;;
57092;Laerm;42968;52.094;4.328;2023-04-15T03:35:12;66.34;42.47;80.26;;
57092;Laerm;42968;52.094;4.328;2023-04-15T03:37:38;59.68;39.08;76.54;;
57092;Laerm;42968;52.094;4.328;2023-04-15T03:40:03;59.49;39.92;73.91;;
57092;Laerm;42968;52.094;4.328;2023-04-15T03:42:28;62.26;43.58;75.23;;
57092;Laerm;42968;52.094;4.328;2023-04-15T03:44:54;62.57;40.43;76.52;;
57092;Laerm;42968;52.094;4.328;2023-04-15T03:47:19;64.39;41.82;81.97;;
57092;Laerm;42968;52.094;4.328;2023-04-15T03:49:45;60.65;39.46;75.40;;
57092;Laerm;42968;52.094;4.328;2023-04-15T03:52:10;60.73;40.33;74.93;;
57092;Laerm;42968;52.094;4.328;2023-04-15T03:54:36;61.75;42.53;78.03;;
57092;Laerm;42968;52.094;4.328;2023-04-15T03:57:01;59.20;39.21;73.70;;
57092;Laerm;42968;52.094;4.328;2023-04-15T03:59:26;62.04;39.58;79.37;;
57092;Laerm;42968;52.094;4.328;2023-04-15T04:01:51;58.80;40.43;73.54;;
57092;Laerm;42968;52.094;4.328;2023-04-15T04:04:17;60.75;40.80;79.41;;
57092;Laerm;42968;52.094;4.328;2023-04-15T04:06:42;61.39;41.89;73.67;;
57092;Laerm;42968;52.094;4.328;2023-04-15T04:09:07;58.46;41.38;73.21;;
57092;Laerm;42968;52.094;4.328;2023-04-15T04:11:32;62.29;40.98;78.15;;
57092;Laerm;42968;52.094;4.328;2023-04-15T04:13:58;63.17;43.34;82.62;;
57092;Laerm;42968;52.094;4.328;2023-04-15T04:16:23;64.90;45.63;78.46;;
57092;Laerm;42968;52.094;4.328;2023-04-15T04:18:48;62.00;40.80;76.28;;
57092;Laerm;42968;52.094;4.328;2023-04-15T04:21:14;59.29;40.03;73.88;;
57092;Laerm;42968;52.094;4.328;2023-04-15T04:23:39;61.16;41.82;72.71;;
57092;Laerm;42968;52.094;4.328;2023-04-15T04:26:04;64.91;42.29;78.74;;
57092;Laerm;42968;52.094;4.328;2023-04-15T04:28:30;64.15;43.63;80.29;;
57092;Laerm;42968;52.094;4.328;2023-04-15T04:30:55;65.53;45.66;81.06;;
57092;Laerm;42968;52.094;4.328;2023-04-15T04:33:20;62.24;45.57;74.92;;
57092;Laerm;42968;52.094;4.328;2023-04-15T04:35:46;58.90;42.03;72.67;;
57092;Laerm;42968;52.094;4.328;2023-04-15T04:38:11;64.18;44.69;76.95;;
57092;Laerm;42968;52.094;4.328;2023-04-15T04:40:36;66.40;49.79;75.86;;
57092;Laerm;42968;52.094;4.328;2023-04-15T04:43:01;65.52;46.62;77.52;;
57092;Laerm;42968;52.094;4.328;2023-04-15T04:45:27;65.43;42.65;76.14;;
57092;Laerm;42968;52.094;4.328;2023-04-15T04:47:52;63.14;43.24;75.28;;
57092;Laerm;42968;52.094;4.328;2023-04-15T04:50:17;67.11;42.76;78.83;;
57092;Laerm;42968;52.094;4.328;2023-04-15T04:52:42;61.70;42.53;74.93;;
57092;Laerm;42968;52.094;4.328;2023-04-15T04:55:08;62.19;42.22;73.93;;
57092;Laerm;42968;52.094;4.328;2023-04-15T04:57:33;62.31;42.98;73.54;;
57092;Laerm;42968;52.094;4.328;2023-04-15T05:00:00;62.56;44.54;76.44;;
57092;Laerm;42968;52.094;4.328;2023-04-15T05:02:26;63.81;43.09;79.20;;
57092;Laerm;42968;52.094;4.328;2023-04-15T05:04:51;61.00;43.39;75.54;;
57092;Laerm;42968;52.094;4.328;2023-04-15T05:07:18;60.97;42.41;73.37;;
57092;Laerm;42968;52.094;4.328;2023-04-15T05:09:44;61.21;41.22;77.90;;
57092;Laerm;42968;52.094;4.328;2023-04-15T05:12:10;65.72;46.50;77.07;;
57092;Laerm;42968;52.094;4.328;2023-04-15T05:14:39;61.69;40.89;75.40;;
57092;Laerm;42968;52.094;4.328;2023-04-15T05:17:04;60.84;42.58;73.97;;
57092;Laerm;42968;52.094;4.328;2023-04-15T05:19:29;64.11;41.30;75.24;;
57092;Laerm;42968;52.094;4.328;2023-04-15T05:21:55;62.59;43.90;76.12;;
57092;Laerm;42968;52.094;4.328;2023-04-15T05:24:20;62.97;45.14;72.72;;
57092;Laerm;42968;52.094;4.328;2023-04-15T05:26:46;65.43;47.34;80.90;;
57092;Laerm;42968;52.094;4.328;2023-04-15T05:29:11;62.61;42.03;76.86;;
57092;Laerm;42968;52.094;4.328;2023-04-15T05:31:37;64.65;41.22;81.40;;
57092;Laerm;42968;52.094;4.328;2023-04-15T05:34:02;62.09;43.99;72.77;;
57092;Laerm;42968;52.094;4.328;2023-04-15T05:36:27;64.86;45.36;76.75;;
57092;Laerm;42968;52.094;4.328;2023-04-15T05:38:53;62.90;44.07;73.53;;
57092;Laerm;42968;52.094;4.328;2023-04-15T05:41:18;66.89;45.42;81.32;;
57092;Laerm;42968;52.094;4.328;2023-04-15T05:43:43;66.09;47.06;76.07;;
57092;Laerm;42968;52.094;4.328;2023-04-15T05:46:09;63.22;42.98;79.13;;
57092;Laerm;42968;52.094;4.328;2023-04-15T05:48:34;64.49;44.35;76.23;;
57092;Laerm;42968;52.094;4.328;2023-04-15T05:50:59;67.11;45.39;77.97;;
57092;Laerm;42968;52.094;4.328;2023-04-15T05:53:25;68.66;47.93;81.29;;
57092;Laerm;42968;52.094;4.328;2023-04-15T05:55:50;66.69;49.16;75.29;;
57092;Laerm;42968;52.094;4.328;2023-04-15T05:58:16;66.41;45.33;80.00;;
57092;Laerm;42968;52.094;4.328;2023-04-15T06:00:41;66.34;44.80;77.95;;
57092;Laerm;42968;52.094;4.328;2023-04-15T06:03:07;64.10;46.57;74.68;;
57092;Laerm;42968;52.094;4.328;2023-04-15T06:05:33;66.60;46.25;76.34;;
57092;Laerm;42968;52.094;4.328;2023-04-15T06:07:58;67.31;45.91;76.91;;
57092;Laerm;42968;52.094;4.328;2023-04-15T06:10:23;67.88;48.10;82.43;;
57092;Laerm;42968;52.094;4.328;2023-04-15T06:12:51;66.26;42.98;77.48;;
57092;Laerm;42968;52.094;4.328;2023-04-15T06:15:16;67.21;44.11;79.44;;
57092;Laerm;42968;52.094;4.328;2023-04-15T06:17:41;65.40;44.58;78.21;;
57092;Laerm;42968;52.094;4.328;2023-04-15T06:20:07;65.71;43.90;79.05;;
57092;Laerm;42968;52.094;4.328;2023-04-15T06:22:32;66.95;44.39;84.31;;
57092;Laerm;42968;52.094;4.328;2023-04-15T06:24:58;65.86;50.66;73.45;;
57092;Laerm;42968;52.094;4.328;2023-04-15T06:27:23;66.71;45.91;77.57;;
57092;Laerm;42968;52.094;4.328;2023-04-15T06:29:48;65.03;42.95;75.18;;
57092;Laerm;42968;52.094;4.328;2023-04-15T06:32:14;64.13;44.51;73.12;;
57092;Laerm;42968;52.094;4.328;2023-04-15T06:34:39;65.98;42.22;76.47;;
57092;Laerm;42968;52.094;4.328;2023-04-15T06:37:04;65.04;44.80;76.39;;
57092;Laerm;42968;52.094;4.328;2023-04-15T06:39:30;68.27;48.20;80.69;;
57092;Laerm;42968;52.094;4.328;2023-04-15T06:41:56;67.18;52.78;78.55;;
57092;Laerm;42968;52.094;4.328;2023-04-15T06:44:21;67.13;53.22;75.21;;
57092;Laerm;42968;52.094;4.328;2023-04-15T06:46:46;66.76;48.42;76.68;;
57092;Laerm;42968;52.094;4.328;2023-04-15T06:49:12;66.40;48.67;77.31;;
57092;Laerm;42968;52.094;4.328;2023-04-15T06:51:37;67.75;49.69;78.24;;
57092;Laerm;42968;52.094;4.328;2023-04-15T06:54:03;67.39;49.79;79.09;;
57092;Laerm;42968;52.094;4.328;2023-04-15T06:56:30;66.71;48.26;78.84;;
57092;Laerm;42968;52.094;4.328;2023-04-15T06:58:55;69.56;52.24;84.85;;
57092;Laerm;42968;52.094;4.328;2023-04-15T07:01:21;65.51;44.19;76.45;;
57092;Laerm;42968;52.094;4.328;2023-04-15T07:03:46;66.46;46.97;75.51;;
57092;Laerm;42968;52.094;4.328;2023-04-15T07:06:11;67.09;47.16;75.48;;
57092;Laerm;42968;52.094;4.328;2023-04-15T07:08:37;67.42;45.23;78.32;;
57092;Laerm;42968;52.094;4.328;2023-04-15T07:11:03;66.97;45.77;78.20;;
57092;Laerm;42968;52.094;4.328;2023-04-15T07:13:29;65.95;45.39;75.68;;
57092;Laerm;42968;52.094;4.328;2023-04-15T07:15:55;68.25;50.04;78.50;;
57092;Laerm;42968;52.094;4.328;2023-04-15T07:18:20;66.87;50.04;77.54;;
57092;Laerm;42968;52.094;4.328;2023-04-15T07:20:46;66.29;46.20;75.61;;
57092;Laerm;42968;52.094;4.328;2023-04-15T07:23:12;65.51;45.60;74.25;;
57092;Laerm;42968;52.094;4.328;2023-04-15T07:25:37;65.73;47.48;75.49;;
57092;Laerm;42968;52.094;4.328;2023-04-15T07:28:02;67.16;47.77;78.23;;
57092;Laerm;42968;52.094;4.328;2023-04-15T07:30:28;67.72;52.27;75.33;;
57092;Laerm;42968;52.094;4.328;2023-04-15T07:32:53;70.27;53.94;85.87;;
57092;Laerm;42968;52.094;4.328;2023-04-15T07:35:18;66.63;44.62;76.36;;
57092;Laerm;42968;52.094;4.328;2023-04-15T07:37:45;68.69;44.43;78.55;;
57092;Laerm;42968;52.094;4.328;2023-04-15T07:40:10;68.15;54.47;75.55;;
57092;Laerm;42968;52.094;4.328;2023-04-15T07:42:36;68.09;51.64;77.80;;
57092;Laerm;42968;52.094;4.328;2023-04-15T07:45:02;67.21;47.40;80.28;;
57092;Laerm;42968;52.094;4.328;2023-04-15T07:47:27;68.27;53.06;79.55;;
57092;Laerm;42968;52.094;4.328;2023-04-15T07:49:53;69.09;55.44;77.66;;
57092;Laerm;42968;52.094;4.328;2023-04-15T07:52:18;68.08;49.14;76.57;;
57092;Laerm;42968;52.094;4.328;2023-04-15T07:54:43;68.80;51.71;77.68;;
57092;Laerm;42968;52.094;4.328;2023-04-15T07:57:09;69.34;47.30;77.55;;
57092;Laerm;42968;52.094;4.328;2023-04-15T07:59:34;69.93;46.55;79.95;;
57092;Laerm;42968;52.094;4.328;2023-04-15T08:02:00;67.38;49.92;77.19;;
57092;Laerm;42968;52.094;4.328;2023-04-15T08:04:25;68.89;47.52;78.76;;
57092;Laerm;42968;52.094;4.328;2023-04-15T08:06:51;69.54;47.61;83.94;;
57092;Laerm;42968;52.094;4.328;2023-04-15T08:09:16;67.83;47.44;78.63;;
57092;Laerm;42968;52.094;4.328;2023-04-15T08:11:42;69.56;47.70;78.96;;
57092;Laerm;42968;52.094;4.328;2023-04-15T08:14:07;69.56;50.85;78.05;;
57092;Laerm;42968;52.094;4.328;2023-04-15T08:16:32;68.20;51.03;81.83;;
57092;Laerm;42968;52.094;4.328;2023-04-15T08:18:58;68.24;48.64;75.24;;
57092;Laerm;42968;52.094;4.328;2023-04-15T08:21:23;68.01;49.87;75.95;;
57092;Laerm;42968;52.094;4.328;2023-04-15T08:23:49;69.63;52.71;77.87;;
57092;Laerm;42968;52.094;4.328;2023-04-15T08:26:15;68.79;49.25;78.57;;
57092;Laerm;42968;52.094;4.328;2023-04-15T08:28:41;68.54;51.64;80.72;;
57092;Laerm;42968;52.094;4.328;2023-04-15T08:31:07;67.00;52.02;74.30;;
57092;Laerm;42968;52.094;4.328;2023-04-15T08:33:33;68.86;48.26;78.81;;
57092;Laerm;42968;52.094;4.328;2023-04-15T08:35:58;67.82;47.18;75.46;;
57092;Laerm;42968;52.094;4.328;2023-04-15T08:38:23;67.96;52.48;78.58;;
57092;Laerm;42968;52.094;4.328;2023-04-15T08:40:49;67.83;58.44;77.32;;
57092;Laerm;42968;52.094;4.328;2023-04-15T08:43:17;69.21;52.28;83.47;;
57092;Laerm;42968;52.094;4.328;2023-04-15T08:45:45;66.95;52.29;80.43;;
57092;Laerm;42968;52.094;4.328;2023-04-15T08:48:12;69.38;48.24;78.85;;
57092;Laerm;42968;52.094;4.328;2023-04-15T08:50:38;67.29;46.66;78.98;;
57092;Laerm;42968;52.094;4.328;2023-04-15T08:53:04;68.88;51.97;89.44;;
57092;Laerm;42968;52.094;4.328;2023-04-15T08:55:31;68.03;47.32;78.13;;
57092;Laerm;42968;52.094;4.328;2023-04-15T08:58:00;68.46;48.03;79.08;;
57092;Laerm;42968;52.094;4.328;2023-04-15T09:00:25;69.21;47.65;79.98;;
57092;Laerm;42968;52.094;4.328;2023-04-15T09:02:51;66.81;49.29;83.60;;
57092;Laerm;42968;52.094;4.328;2023-04-15T09:05:16;67.68;50.95;76.42;;
57092;Laerm;42968;52.094;4.328;2023-04-15T09:07:41;69.37;47.61;81.83;;
57092;Laerm;42968;52.094;4.328;2023-04-15T09:10:08;68.24;49.06;79.41;;
57092;Laerm;42968;52.094;4.328;2023-04-15T09:12:34;68.91;53.18;79.77;;
57092;Laerm;42968;52.094;4.328;2023-04-15T09:15:01;69.14;52.05;80.91;;
57092;Laerm;42968;52.094;4.328;2023-04-15T09:17:26;68.69;45.80;78.10;;
57092;Laerm;42968;52.094;4.328;2023-04-15T09:20:06;67.61;50.77;75.23;;
57092;Laerm;42968;52.094;4.328;2023-04-15T09:22:31;67.85;52.52;75.57;;
57092;Laerm;42968;52.094;4.328;2023-04-15T09:24:57;67.77;50.16;76.19;;
57092;Laerm;42968;52.094;4.328;2023-04-15T09:27:22;67.99;49.98;77.84;;
57092;Laerm;42968;52.094;4.328;2023-04-15T09:29:48;68.25;49.20;83.96;;
57092;Laerm;42968;52.094;4.328;2023-04-15T09:32:14;67.95;53.90;78.80;;
57092;Laerm;42968;52.094;4.328;2023-04-15T09:34:41;66.35;53.00;76.18;;
57092;Laerm;42968;52.094;4.328;2023-04-15T09:37:06;68.45;47.54;80.30;;
57092;Laerm;42968;52.094;4.328;2023-04-15T09:39:53;70.20;51.88;76.49;;
57092;Laerm;42968;52.094;4.328;2023-04-15T09:42:17;68.70;44.47;81.00;;
57092;Laerm;42968;52.094;4.328;2023-04-15T09:44:48;68.93;51.82;79.37;;
57092;Laerm;42968;52.094;4.328;2023-04-15T09:47:26;65.77;45.33;74.95;;
57092;Laerm;42968;52.094;4.328;2023-04-15T09:49:55;69.94;53.00;82.40;;
57092;Laerm;42968;52.094;4.328;2023-04-15T09:52:21;71.77;52.09;90.20;;
57092;Laerm;42968;52.094;4.328;2023-04-15T09:54:46;67.55;51.40;77.02;;
57092;Laerm;42968;52.094;4.328;2023-04-15T09:57:11;69.22;50.38;77.50;;
57092;Laerm;42968;52.094;4.328;2023-04-15T09:59:37;69.17;45.97;76.21;;
57092;Laerm;42968;52.094;4.328;2023-04-15T10:02:05;68.47;47.06;76.99;;
57092;Laerm;42968;52.094;4.328;2023-04-15T10:04:31;69.34;45.20;77.78;;
57092;Laerm;42968;52.094;4.328;2023-04-15T10:06:59;68.17;47.00;75.88;;
57092;Laerm;42968;52.094;4.328;2023-04-15T10:09:25;68.08;46.35;76.04;;
57092;Laerm;42968;52.094;4.328;2023-04-15T10:11:50;68.86;49.93;78.83;;
57092;Laerm;42968;52.094;4.328;2023-04-15T10:14:16;68.83;43.90;80.50;;
57092;Laerm;42968;52.094;4.328;2023-04-15T10:16:42;69.73;46.89;82.14;;
57092;Laerm;42968;52.094;4.328;2023-04-15T10:19:10;68.89;52.59;84.81;;
57092;Laerm;42968;52.094;4.328;2023-04-15T10:21:36;69.90;51.43;81.72;;
57092;Laerm;42968;52.094;4.328;2023-04-15T10:24:01;69.91;51.28;78.52;;
57092;Laerm;42968;52.094;4.328;2023-04-15T10:26:27;69.20;54.84;80.33;;
57092;Laerm;42968;52.094;4.328;2023-04-15T10:28:52;69.48;53.64;79.40;;
57092;Laerm;42968;52.094;4.328;2023-04-15T10:31:18;66.76;43.94;76.86;;
57092;Laerm;42968;52.094;4.328;2023-04-15T10:33:44;68.86;55.18;78.68;;
57092;Laerm;42968;52.094;4.328;2023-04-15T10:36:10;69.30;52.90;76.67;;
57092;Laerm;42968;52.094;4.328;2023-04-15T10:38:39;70.92;48.95;81.61;;
57092;Laerm;42968;52.094;4.328;2023-04-15T10:41:16;68.67;49.72;78.35;;
57092;Laerm;42968;52.094;4.328;2023-04-15T10:43:49;70.22;51.56;78.00;;
57092;Laerm;42968;52.094;4.328;2023-04-15T10:46:50;68.12;53.84;75.54;;
57092;Laerm;42968;52.094;4.328;2023-04-15T10:49:11;69.31;49.95;78.00;;
57092;Laerm;42968;52.094;4.328;2023-04-15T10:51:44;71.21;49.44;99.36;;
57092;Laerm;42968;52.094;4.328;2023-04-15T10:54:29;69.88;51.73;78.09;;
57092;Laerm;42968;52.094;4.328;2023-04-15T10:57:20;67.52;49.71;78.25;;
57092;Laerm;42968;52.094;4.328;2023-04-15T11:02:41;68.30;48.36;78.54;;
57092;Laerm;42968;52.094;4.328;2023-04-15T11:05:06;69.63;50.62;80.35;;
57092;Laerm;42968;52.094;4.328;2023-04-15T11:07:39;69.75;52.94;81.71;;
57092;Laerm;42968;52.094;4.328;2023-04-15T11:12:42;70.04;44.73;78.14;;
57092;Laerm;42968;52.094;4.328;2023-04-15T11:17:51;68.74;57.05;78.04;;
57092;Laerm;42968;52.094;4.328;2023-04-15T11:20:17;68.12;51.40;79.71;;
57092;Laerm;42968;52.094;4.328;2023-04-15T11:22:49;70.08;54.63;79.07;;
57092;Laerm;42968;52.094;4.328;2023-04-15T11:25:21;68.27;50.40;82.53;;
57092;Laerm;42968;52.094;4.328;2023-04-15T11:27:47;70.80;49.51;84.37;;
57092;Laerm;42968;52.094;4.328;2023-04-15T11:30:17;69.18;51.62;77.75;;
57092;Laerm;42968;52.094;4.328;2023-04-15T11:32:44;69.00;46.45;77.04;;
57092;Laerm;42968;52.094;4.328;2023-04-15T11:35:09;68.19;48.67;81.57;;
57092;Laerm;42968;52.094;4.328;2023-04-15T11:37:34;69.46;52.70;80.39;;
57092;Laerm;42968;52.094;4.328;2023-04-15T11:40:01;69.81;49.03;82.65;;
57092;Laerm;42968;52.094;4.328;2023-04-15T11:42:26;68.38;49.16;75.08;;
57092;Laerm;42968;52.094;4.328;2023-04-15T11:45:04;69.28;56.36;78.08;;
57092;Laerm;42968;52.094;4.328;2023-04-15T11:47:30;70.45;53.09;78.74;;
57092;Laerm;42968;52.094;4.328;2023-04-15T11:49:55;70.70;55.21;78.92;;
57092;Laerm;42968;52.094;4.328;2023-04-15T11:52:21;68.28;44.94;80.91;;
57092;Laerm;42968;52.094;4.328;2023-04-15T11:54:46;70.67;49.73;80.18;;
57092;Laerm;42968;52.094;4.328;2023-04-15T11:57:12;68.40;46.40;75.05;;
57092;Laerm;42968;52.094;4.328;2023-04-15T11:59:41;68.48;53.51;81.40;;
57092;Laerm;42968;52.094;4.328;2023-04-15T12:02:12;68.97;49.69;79.78;;
57092;Laerm;42968;52.094;4.328;2023-04-15T12:04:38;70.54;52.20;79.64;;
57092;Laerm;42968;52.094;4.328;2023-04-15T12:07:03;69.27;46.78;80.32;;
57092;Laerm;42968;52.094;4.328;2023-04-15T12:09:29;69.68;48.55;75.56;;
57092;Laerm;42968;52.094;4.328;2023-04-15T12:11:56;68.17;55.97;77.36;;
57092;Laerm;42968;52.094;4.328;2023-04-15T12:14:31;69.73;47.74;79.06;;
57092;Laerm;42968;52.094;4.328;2023-04-15T12:16:57;68.97;46.73;78.51;;
57092;Laerm;42968;52.094;4.328;2023-04-15T12:21:50;68.48;48.66;76.10;;
57092;Laerm;42968;52.094;4.328;2023-04-15T12:24:18;70.24;50.85;79.71;;
57092;Laerm;42968;52.094;4.328;2023-04-15T12:26:45;70.49;56.81;76.88;;
57092;Laerm;42968;52.094;4.328;2023-04-15T12:29:11;69.72;46.71;79.68;;
57092;Laerm;42968;52.094;4.328;2023-04-15T12:31:45;68.50;50.22;77.19;;
57092;Laerm;42968;52.094;4.328;2023-04-15T12:34:11;70.38;52.26;85.75;;
57092;Laerm;42968;52.094;4.328;2023-04-15T12:36:36;70.60;51.17;84.14;;
57092;Laerm;42968;52.094;4.328;2023-04-15T12:39:02;71.12;47.98;81.22;;
57092;Laerm;42968;52.094;4.328;2023-04-15T12:41:28;68.82;49.07;78.94;;
57092;Laerm;42968;52.094;4.328;2023-04-15T12:43:53;68.48;47.14;76.45;;
57092;Laerm;42968;52.094;4.328;2023-04-15T12:46:19;70.43;50.95;81.70;;
57092;Laerm;42968;52.094;4.328;2023-04-15T12:48:44;68.98;49.24;76.66;;
57092;Laerm;42968;52.094;4.328;2023-04-15T12:51:10;69.01;52.54;78.67;;
57092;Laerm;42968;52.094;4.328;2023-04-15T12:53:35;69.27;45.11;76.75;;
57092;Laerm;42968;52.094;4.328;2023-04-15T12:56:01;69.12;48.13;77.38;;
57092;Laerm;42968;52.094;4.328;2023-04-15T12:58:26;71.22;47.57;78.91;;
57092;Laerm;42968;52.094;4.328;2023-04-15T13:00:52;69.68;48.61;78.73;;
57092;Laerm;42968;52.094;4.328;2023-04-15T13:03:17;69.36;49.43;81.10;;
57092;Laerm;42968;52.094;4.328;2023-04-15T13:05:43;69.34;45.94;78.15;;
57092;Laerm;42968;52.094;4.328;2023-04-15T13:08:08;70.12;50.48;79.92;;
57092;Laerm;42968;52.094;4.328;2023-04-15T13:10:34;67.78;57.02;74.85;;
57092;Laerm;42968;52.094;4.328;2023-04-15T13:13:03;68.84;57.75;77.02;;
57092;Laerm;42968;52.094;4.328;2023-04-15T13:15:29;67.83;53.05;76.84;;
57092;Laerm;42968;52.094;4.328;2023-04-15T13:17:54;69.42;46.35;77.26;;
57092;Laerm;42968;52.094;4.328;2023-04-15T13:20:20;68.81;53.54;76.58;;
57092;Laerm;42968;52.094;4.328;2023-04-15T13:22:45;69.88;51.24;84.88;;
57092;Laerm;42968;52.094;4.328;2023-04-15T13:25:10;68.80;49.58;80.80;;
57092;Laerm;42968;52.094;4.328;2023-04-15T13:27:36;70.42;48.83;84.41;;
57092;Laerm;42968;52.094;4.328;2023-04-15T13:30:02;68.35;53.28;76.38;;
57092;Laerm;42968;52.094;4.328;2023-04-15T13:32:27;68.58;49.88;77.87;;
57092;Laerm;42968;52.094;4.328;2023-04-15T13:34:53;69.12;54.47;81.30;;
57092;Laerm;42968;52.094;4.328;2023-04-15T13:37:21;68.28;49.93;82.99;;
57092;Laerm;42968;52.094;4.328;2023-04-15T13:39:49;68.52;46.02;78.62;;
57092;Laerm;42968;52.094;4.328;2023-04-15T13:42:15;69.17;56.93;89.13;;
57092;Laerm;42968;52.094;4.328;2023-04-15T13:44:41;69.66;52.57;78.21;;
57092;Laerm;42968;52.094;4.328;2023-04-15T13:47:06;68.85;48.00;78.83;;
57092;Laerm;42968;52.094;4.328;2023-04-15T13:49:31;67.64;53.45;76.16;;